Time;durP1;ratioP1;P1;durP2;ratioP2;P2;SDS_P1;SDS_P2;PMS_P1;PMS_P2;Temp;Humidity;BMP_temperature;BMP_pressure;BME280_temperature;BME280_humidity;BME280_pressure;Samples;Min_cycle;Max_cycle;Signal;HPM_P1;HPM_P2
2023/03/13 00:01:51;;;;;;;1.20;1.10;;;17.90;39.20;;;;;;4982002;28;20243;-78
2023/03/13 00:04:17;;;;;;;3.43;1.03;;;17.90;39.20;;;;;;4994915;28;22525;-78
2023/03/13 00:06:42;;;;;;;1.60;1.07;;;17.90;39.20;;;;;;4992753;28;21003;-78
2023/03/13 00:09:11;;;;;;;1.20;1.03;;;17.90;39.20;;;;;;4988042;28;20229;-78
2023/03/13 00:11:36;;;;;;;1.13;0.87;;;17.90;39.20;;;;;;4981768;28;20313;-78
2023/03/13 00:14:03;;;;;;;1.50;1.10;;;17.90;39.30;;;;;;4988287;28;20459;-78
2023/03/13 00:16:29;;;;;;;1.50;1.03;;;17.90;39.20;;;;;;4989320;28;20219;-77
2023/03/13 00:18:56;;;;;;;2.07;1.30;;;17.90;39.20;;;;;;4988821;28;20435;-78
2023/03/13 00:21:25;;;;;;;1.00;0.90;;;17.90;39.20;;;;;;4992917;28;20487;-77
2023/03/13 00:23:51;;;;;;;1.30;1.10;;;17.90;39.30;;;;;;4989235;28;20476;-77
2023/03/13 00:26:22;;;;;;;1.30;1.13;;;17.80;39.20;;;;;;4991559;28;20779;-77
2023/03/13 00:28:49;;;;;;;1.20;1.00;;;17.90;39.30;;;;;;4993985;28;20290;-77
2023/03/13 00:31:18;;;;;;;1.10;1.00;;;17.90;39.30;;;;;;4988517;28;20968;-78
2023/03/13 00:33:46;;;;;;;0.97;0.90;;;17.90;39.30;;;;;;4990492;28;20519;-78
2023/03/13 00:36:33;;;;;;;1.70;1.30;;;17.80;39.20;;;;;;5000555;28;20426;-77
2023/03/13 00:38:59;;;;;;;1.23;1.00;;;17.90;39.20;;;;;;4994912;28;20446;-77
2023/03/13 00:41:30;;;;;;;2.70;0.90;;;17.80;39.20;;;;;;4991530;28;20479;-77
2023/03/13 00:43:56;;;;;;;1.67;1.00;;;17.80;39.20;;;;;;4988452;28;20968;-77
2023/03/13 00:46:24;;;;;;;1.57;1.00;;;17.90;39.30;;;;;;4991357;28;20443;-77
2023/03/13 00:48:50;;;;;;;2.57;1.07;;;17.80;39.20;;;;;;4985291;28;20448;-76
2023/03/13 00:51:18;;;;;;;1.10;1.00;;;17.90;39.40;;;;;;4997036;28;20470;-77
2023/03/13 00:53:44;;;;;;;1.50;1.40;;;17.80;39.20;;;;;;4992740;28;20587;-77
2023/03/13 00:56:12;;;;;;;1.10;1.00;;;17.80;39.20;;;;;;4997740;28;20496;-77
2023/03/13 00:58:40;;;;;;;1.10;0.90;;;17.80;39.20;;;;;;4982804;28;20572;-78
2023/03/13 01:01:09;;;;;;;1.90;1.37;;;17.80;39.20;;;;;;4988083;28;21536;-77
2023/03/13 01:03:36;;;;;;;1.43;0.90;;;17.80;39.20;;;;;;4983063;28;20468;-78
2023/03/13 01:06:03;;;;;;;1.07;0.97;;;17.80;39.20;;;;;;5005875;28;20472;-78
2023/03/13 01:08:29;;;;;;;1.10;1.00;;;17.80;39.20;;;;;;4995715;28;20470;-78
2023/03/13 01:11:07;;;;;;;1.10;1.00;;;17.80;39.20;;;;;;4990185;28;20469;-77
2023/03/13 01:13:34;;;;;;;1.37;1.27;;;17.80;39.20;;;;;;4992903;28;20438;-77
2023/03/13 01:16:14;;;;;;;1.10;1.00;;;17.80;39.20;;;;;;4989479;28;20527;-77
2023/03/13 01:18:44;;;;;;;1.20;0.90;;;17.80;39.20;;;;;;4993835;28;20436;-78
2023/03/13 01:21:11;;;;;;;1.63;0.90;;;17.80;39.20;;;;;;4995492;28;20452;-78
2023/03/13 01:23:37;;;;;;;1.37;1.00;;;17.80;39.20;;;;;;4987072;28;20491;-78
2023/03/13 01:26:04;;;;;;;1.30;1.00;;;17.80;39.40;;;;;;4991117;28;20465;-78
2023/03/13 01:28:30;;;;;;;1.20;1.00;;;17.80;39.30;;;;;;4987817;28;20219;-78
2023/03/13 01:30:56;;;;;;;1.27;1.17;;;17.80;39.30;;;;;;4995456;28;20526;-77
2023/03/13 01:33:22;;;;;;;1.63;0.80;;;17.80;39.30;;;;;;4985577;28;20289;-77
2023/03/13 01:35:47;;;;;;;2.17;1.20;;;17.80;39.30;;;;;;4994910;28;20676;-78
2023/03/13 01:38:13;;;;;;;1.13;1.03;;;17.80;39.30;;;;;;4997129;28;20596;-78
2023/03/13 01:40:41;;;;;;;1.87;1.10;;;17.80;39.30;;;;;;4988910;28;20246;-78
2023/03/13 01:43:28;;;;;;;1.90;1.37;;;17.80;39.30;;;;;;4987774;28;20469;-78
2023/03/13 01:46:03;;;;;;;1.13;0.80;;;17.80;39.30;;;;;;4989636;28;20501;-77
2023/03/13 01:48:47;;;;;;;0.80;0.80;;;17.80;40.10;;;;;;4988138;28;20447;-77
2023/03/13 01:51:34;;;;;;;1.40;1.00;;;17.80;39.30;;;;;;4997662;28;20463;-78
2023/03/13 01:54:29;;;;;;;1.53;1.00;;;17.80;39.30;;;;;;4987296;28;21423;-77
2023/03/13 01:57:02;;;;;;;1.30;1.10;;;17.80;39.50;;;;;;4988926;28;20465;-77
2023/03/13 01:59:34;;;;;;;2.20;0.90;;;17.80;39.40;;;;;;5010196;28;20429;-75
2023/03/13 02:02:01;;;;;;;1.77;0.90;;;17.80;39.40;;;;;;4987556;28;20524;-76
2023/03/13 02:04:33;;;;;;;2.20;0.87;;;17.80;39.50;;;;;;4995915;28;20443;-76
2023/03/13 02:07:04;;;;;;;1.20;0.97;;;17.80;39.30;;;;;;4990781;28;20467;-77
2023/03/13 02:09:32;;;;;;;1.00;0.90;;;17.80;39.30;;;;;;4995343;28;20439;-76
2023/03/13 02:12:14;;;;;;;1.10;1.00;;;17.80;39.40;;;;;;4984054;28;20574;-77
2023/03/13 02:14:43;;;;;;;1.00;0.90;;;17.80;39.30;;;;;;4984215;28;20598;-77
2023/03/13 02:17:09;;;;;;;0.83;0.80;;;17.80;39.30;;;;;;4982490;28;20465;-77
2023/03/13 02:19:35;;;;;;;1.33;0.87;;;17.80;39.40;;;;;;4981654;28;20463;-77
2023/03/13 02:22:08;;;;;;;2.20;0.90;;;17.80;39.30;;;;;;4994724;28;20476;-77
2023/03/13 02:24:52;;;;;;;1.00;0.83;;;17.80;39.40;;;;;;4981677;28;20359;-78
2023/03/13 02:27:17;;;;;;;0.93;0.83;;;17.80;39.40;;;;;;4996048;28;20431;-77
2023/03/13 02:29:43;;;;;;;1.43;0.90;;;17.80;39.40;;;;;;4989040;28;20470;-77
2023/03/13 02:32:09;;;;;;;1.00;0.90;;;17.80;39.50;;;;;;4996192;28;20227;-77
2023/03/13 02:34:38;;;;;;;0.87;0.77;;;17.80;39.50;;;;;;4998449;28;20219;-78
2023/03/13 02:37:05;;;;;;;1.77;0.90;;;17.80;39.50;;;;;;4986622;28;20220;-77
2023/03/13 02:39:32;;;;;;;1.53;1.10;;;17.80;39.50;;;;;;4983473;28;20464;-77
2023/03/13 02:42:00;;;;;;;1.87;0.90;;;17.80;39.50;;;;;;4996421;28;20484;-77
2023/03/13 02:44:26;;;;;;;1.00;0.90;;;17.80;39.50;;;;;;4993714;28;20439;-77
2023/03/13 02:46:52;;;;;;;1.77;0.90;;;17.80;39.50;;;;;;4984040;28;20535;-76
2023/03/13 02:49:24;;;;;;;1.70;1.10;;;17.80;39.50;;;;;;4987437;28;20219;-77
2023/03/13 02:51:52;;;;;;;0.90;0.73;;;17.80;39.50;;;;;;4982690;28;20437;-75
2023/03/13 02:54:32;;;;;;;0.90;0.70;;;17.80;39.50;;;;;;4988493;28;20864;-77
2023/03/13 02:57:01;;;;;;;1.10;1.00;;;17.80;39.90;;;;;;4983873;28;20527;-77
2023/03/13 02:59:26;;;;;;;1.30;1.00;;;17.80;39.50;;;;;;4980820;28;20522;-77
2023/03/13 03:01:52;;;;;;;1.20;1.10;;;17.80;39.50;;;;;;4992948;28;20455;-76
2023/03/13 03:04:20;;;;;;;1.20;1.10;;;17.80;39.50;;;;;;4985943;28;20215;-77
2023/03/13 03:06:45;;;;;;;0.93;0.80;;;17.80;39.50;;;;;;4990750;28;20223;-77
2023/03/13 03:09:11;;;;;;;1.00;0.90;;;17.80;39.50;;;;;;4988720;28;23628;-77
2023/03/13 03:11:37;;;;;;;1.20;0.90;;;17.80;39.60;;;;;;4991118;28;20663;-77
2023/03/13 03:14:03;;;;;;;0.80;0.70;;;17.80;39.60;;;;;;4993188;28;20292;-77
2023/03/13 03:16:29;;;;;;;1.10;1.00;;;17.80;39.60;;;;;;4992659;28;20463;-77
2023/03/13 03:18:54;;;;;;;0.97;0.87;;;17.80;39.60;;;;;;4991044;28;20483;-77
2023/03/13 03:21:21;;;;;;;0.80;0.70;;;17.80;39.60;;;;;;4987233;28;20227;-77
2023/03/13 03:23:46;;;;;;;1.10;1.00;;;17.80;39.60;;;;;;4989488;28;20250;-77
2023/03/13 03:26:12;;;;;;;0.97;0.87;;;17.80;39.60;;;;;;4995725;28;20810;-77
2023/03/13 03:28:37;;;;;;;0.80;0.70;;;17.80;39.60;;;;;;4986468;28;20220;-76
2023/03/13 03:31:04;;;;;;;1.07;0.93;;;17.80;39.70;;;;;;4990263;28;20219;-77
2023/03/13 03:33:30;;;;;;;1.00;0.80;;;17.80;39.60;;;;;;4991891;28;20285;-77
2023/03/13 03:36:00;;;;;;;0.97;0.80;;;17.80;39.60;;;;;;4983492;28;20461;-77
2023/03/13 03:38:26;;;;;;;1.00;0.70;;;17.80;39.60;;;;;;4978724;28;20219;-77
2023/03/13 03:40:51;;;;;;;1.23;0.87;;;17.80;39.70;;;;;;4986401;28;20798;-76
2023/03/13 03:43:17;;;;;;;1.07;0.80;;;17.80;39.70;;;;;;4985476;28;20223;-77
2023/03/13 03:45:42;;;;;;;1.10;0.90;;;17.80;39.70;;;;;;4984883;28;20224;-77
2023/03/13 03:48:08;;;;;;;1.03;0.80;;;17.80;39.70;;;;;;4985951;28;20256;-77
2023/03/13 03:50:33;;;;;;;0.90;0.70;;;17.80;39.70;;;;;;4994272;28;20677;-77
2023/03/13 03:52:59;;;;;;;0.87;0.73;;;17.80;39.60;;;;;;4988836;28;20741;-77
2023/03/13 03:55:24;;;;;;;0.90;0.70;;;17.80;39.70;;;;;;5026042;28;20228;-77
2023/03/13 03:57:50;;;;;;;0.97;0.70;;;17.80;39.70;;;;;;4986848;28;20224;-77
2023/03/13 04:00:18;;;;;;;1.20;0.80;;;17.80;39.70;;;;;;4981903;28;20269;-77
2023/03/13 04:02:44;;;;;;;1.20;0.80;;;17.80;39.70;;;;;;4991017;28;20311;-77
2023/03/13 04:05:09;;;;;;;0.80;0.80;;;17.70;39.60;;;;;;4978835;28;20479;-77
2023/03/13 04:07:35;;;;;;;0.80;0.77;;;17.80;40.50;;;;;;4991562;28;20463;-77
2023/03/13 04:10:01;;;;;;;1.37;0.83;;;17.80;39.70;;;;;;4978802;28;20963;-76
2023/03/13 04:12:26;;;;;;;1.00;0.87;;;17.80;39.70;;;;;;4982200;28;20247;-78
2023/03/13 04:14:52;;;;;;;0.80;0.70;;;17.70;39.60;;;;;;4997522;28;20227;-75
2023/03/13 04:17:17;;;;;;;0.80;0.80;;;17.80;39.70;;;;;;4993416;28;20231;-76
2023/03/13 04:19:43;;;;;;;0.83;0.80;;;17.80;40.40;;;;;;4987240;28;20242;-77
2023/03/13 04:22:08;;;;;;;0.90;0.70;;;17.80;39.70;;;;;;4991788;28;20246;-77
2023/03/13 04:24:34;;;;;;;1.00;0.80;;;17.80;39.70;;;;;;4987838;28;20225;-77
2023/03/13 04:27:05;;;;;;;0.87;0.73;;;17.80;39.70;;;;;;4989062;28;20227;-77
2023/03/13 04:29:34;;;;;;;0.80;0.70;;;17.80;39.70;;;;;;4986447;28;21095;-77
2023/03/13 04:32:00;;;;;;;0.83;0.77;;;17.80;39.70;;;;;;4984125;28;21029;-76
2023/03/13 04:34:25;;;;;;;1.00;0.70;;;17.70;39.60;;;;;;4990365;28;20463;-77
2023/03/13 04:36:51;;;;;;;0.70;0.70;;;17.70;39.60;;;;;;4983735;28;20478;-76
2023/03/13 04:39:16;;;;;;;1.23;0.90;;;17.80;39.70;;;;;;4982616;28;20211;-76
2023/03/13 04:41:42;;;;;;;0.80;0.73;;;17.70;39.60;;;;;;4995144;28;20731;-76
2023/03/13 04:44:07;;;;;;;1.00;0.90;;;17.80;39.70;;;;;;4988847;28;20726;-76
2023/03/13 04:46:33;;;;;;;0.80;0.80;;;17.80;39.80;;;;;;4994130;28;20231;-76
2023/03/13 04:48:58;;;;;;;0.83;0.67;;;17.80;39.80;;;;;;4985398;28;20683;-76
2023/03/13 04:51:24;;;;;;;0.80;0.63;;;17.80;39.70;;;;;;4991457;28;20227;-76
2023/03/13 04:53:49;;;;;;;0.87;0.67;;;17.80;39.70;;;;;;4985786;28;20679;-76
2023/03/13 04:56:33;;;;;;;0.73;0.67;;;17.80;39.70;;;;;;4980555;28;20692;-76
2023/03/13 04:58:59;;;;;;;0.90;0.70;;;17.80;39.70;;;;;;4975067;28;20278;-75
2023/03/13 05:01:24;;;;;;;1.00;0.70;;;17.80;39.70;;;;;;4984035;28;20850;-75
2023/03/13 05:03:50;;;;;;;0.90;0.70;;;17.80;39.70;;;;;;4991649;28;20254;-76
2023/03/13 05:06:15;;;;;;;1.10;0.80;;;17.80;39.70;;;;;;4988841;28;20241;-76
2023/03/13 05:08:41;;;;;;;0.87;0.80;;;17.80;39.70;;;;;;4986400;28;20326;-76
2023/03/13 05:11:07;;;;;;;0.80;0.70;;;17.80;39.70;;;;;;4987736;28;20347;-76
2023/03/13 05:13:32;;;;;;;0.90;0.67;;;17.80;39.70;;;;;;4987937;28;20303;-76
2023/03/13 05:15:58;;;;;;;1.33;0.60;;;17.80;39.70;;;;;;4970734;28;20241;-75
2023/03/13 05:18:24;;;;;;;0.83;0.80;;;17.80;39.70;;;;;;4984837;28;20215;-75
2023/03/13 05:20:49;;;;;;;0.60;0.60;;;17.80;39.70;;;;;;4983037;28;20247;-75
2023/03/13 05:23:15;;;;;;;0.80;0.73;;;17.80;39.70;;;;;;4980120;28;20672;-75
2023/03/13 05:25:40;;;;;;;0.70;0.60;;;17.80;39.70;;;;;;4986479;28;20310;-75
2023/03/13 05:28:06;;;;;;;0.90;0.70;;;17.80;39.70;;;;;;4988086;28;20311;-75
2023/03/13 05:30:32;;;;;;;0.80;0.70;;;17.80;39.70;;;;;;4990429;28;20733;-76
2023/03/13 05:32:57;;;;;;;1.47;0.80;;;17.80;39.80;;;;;;4992089;28;20590;-75
2023/03/13 05:35:23;;;;;;;0.80;0.70;;;17.80;39.70;;;;;;4992787;28;21575;-79
2023/03/13 05:37:48;;;;;;;0.90;0.70;;;17.80;39.70;;;;;;4986038;28;20242;-83
2023/03/13 05:40:14;;;;;;;0.70;0.70;;;17.80;39.80;;;;;;4983987;28;20219;-79
2023/03/13 05:42:40;;;;;;;1.20;0.70;;;17.80;39.70;;;;;;4973906;28;20236;-79
2023/03/13 05:45:08;;;;;;;0.70;0.60;;;17.80;39.70;;;;;;4988966;28;21776;-79
2023/03/13 05:47:34;;;;;;;0.80;0.70;;;17.80;39.70;;;;;;4990359;28;20581;-77
2023/03/13 05:49:59;;;;;;;0.70;0.60;;;17.80;39.70;;;;;;4986597;28;20473;-77
2023/03/13 05:52:25;;;;;;;1.23;0.80;;;17.80;39.70;;;;;;4976532;28;21768;-77
2023/03/13 05:54:51;;;;;;;1.70;0.80;;;17.80;39.80;;;;;;4998925;28;20254;-77
2023/03/13 05:57:16;;;;;;;1.50;0.80;;;17.80;39.80;;;;;;4988511;28;20306;-77
2023/03/13 05:59:42;;;;;;;0.90;0.70;;;17.80;39.80;;;;;;4981502;28;20703;-77
2023/03/13 06:02:07;;;;;;;2.20;0.73;;;17.80;39.80;;;;;;4978892;28;20234;-77
2023/03/13 06:04:34;;;;;;;0.93;0.73;;;17.80;39.70;;;;;;4980161;28;20224;-72
2023/03/13 06:06:59;;;;;;;0.83;0.80;;;17.80;39.80;;;;;;4988863;28;20712;-77
2023/03/13 06:09:25;;;;;;;1.00;0.70;;;17.80;39.80;;;;;;4991793;28;20470;-76
2023/03/13 06:11:51;;;;;;;1.10;0.80;;;17.80;39.90;;;;;;4980034;28;20228;-72
2023/03/13 06:14:16;;;;;;;3.47;0.73;;;17.80;39.80;;;;;;4987662;28;20229;-83
2023/03/13 06:16:42;;;;;;;2.03;0.80;;;17.80;40.20;;;;;;4981390;28;20231;-77
2023/03/13 06:19:08;;;;;;;6.63;0.90;;;17.80;39.90;;;;;;4992654;28;20231;-76
2023/03/13 06:21:33;;;;;;;1.90;1.17;;;17.80;39.90;;;;;;4984643;28;20236;-71
2023/03/13 06:23:59;;;;;;;2.27;0.97;;;17.80;39.80;;;;;;4975312;28;20216;-73
2023/03/13 06:26:24;;;;;;;3.87;1.20;;;17.80;39.80;;;;;;4992412;28;20231;-70
2023/03/13 06:28:51;;;;;;;1.20;1.10;;;17.90;39.90;;;;;;4980959;28;20251;-71
2023/03/13 06:31:17;;;;;;;6.97;0.90;;;17.90;39.80;;;;;;4981784;28;20691;-68
2023/03/13 06:33:42;;;;;;;1.23;1.13;;;17.90;39.80;;;;;;4981020;28;20449;-67
2023/03/13 06:36:08;;;;;;;1.00;0.80;;;17.90;39.80;;;;;;4986547;28;20325;-67
2023/03/13 06:38:34;;;;;;;1.97;0.90;;;17.90;39.90;;;;;;4978303;28;20247;-67
2023/03/13 06:40:59;;;;;;;1.10;1.00;;;17.90;39.80;;;;;;4986063;28;20538;-67
2023/03/13 06:43:25;;;;;;;1.43;0.80;;;17.90;39.90;;;;;;4984347;28;20342;-67
2023/03/13 06:45:51;;;;;;;1.03;0.93;;;17.90;39.90;;;;;;4988292;28;20223;-70
2023/03/13 06:48:17;;;;;;;0.70;0.60;;;17.90;39.90;;;;;;4995687;28;20230;-68
2023/03/13 06:50:43;;;;;;;1.33;0.80;;;17.90;39.90;;;;;;4997664;28;20234;-69
2023/03/13 06:53:19;;;;;;;1.20;0.80;;;17.90;40.10;;;;;;4996804;28;20506;-68
2023/03/13 06:55:45;;;;;;;0.93;0.80;;;17.90;40.00;;;;;;4995972;28;20234;-68
2023/03/13 06:58:11;;;;;;;0.90;0.70;;;17.90;40.00;;;;;;4991767;28;21212;-68
2023/03/13 07:00:39;;;;;;;1.10;0.80;;;17.90;40.00;;;;;;4995099;28;20502;-67
2023/03/13 07:03:05;;;;;;;1.00;0.80;;;17.90;40.00;;;;;;4984168;28;20227;-68
2023/03/13 07:05:31;;;;;;;1.97;0.80;;;17.90;40.00;;;;;;4993555;28;20470;-68
2023/03/13 07:07:56;;;;;;;1.30;0.87;;;17.90;40.00;;;;;;4988461;28;20223;-68
2023/03/13 07:10:22;;;;;;;1.30;0.87;;;17.90;40.00;;;;;;4994617;28;20301;-68
2023/03/13 07:12:47;;;;;;;1.30;0.77;;;17.90;40.00;;;;;;4982127;28;20672;-69
2023/03/13 07:15:13;;;;;;;0.97;0.70;;;17.90;40.00;;;;;;4996931;28;20220;-67
2023/03/13 07:17:39;;;;;;;2.30;0.80;;;17.90;40.00;;;;;;4986847;28;20237;-68
2023/03/13 07:20:06;;;;;;;0.83;0.80;;;17.90;40.10;;;;;;4976669;28;20234;-67
2023/03/13 07:22:31;;;;;;;1.20;0.70;;;17.90;40.00;;;;;;4981344;28;20279;-68
2023/03/13 07:24:57;;;;;;;1.10;0.90;;;17.90;40.10;;;;;;4981821;28;20532;-68
2023/03/13 07:27:23;;;;;;;1.10;0.87;;;17.90;40.10;;;;;;4991678;28;20306;-68
2023/03/13 07:29:48;;;;;;;1.30;1.00;;;17.90;40.10;;;;;;4989262;28;20582;-68
2023/03/13 07:32:14;;;;;;;0.90;0.77;;;17.90;40.10;;;;;;4981889;28;20676;-68
2023/03/13 07:34:43;;;;;;;0.80;0.70;;;17.90;40.10;;;;;;4994437;28;20219;-68
2023/03/13 07:37:10;;;;;;;0.80;0.70;;;17.90;40.10;;;;;;4996506;28;20474;-67
2023/03/13 07:39:35;;;;;;;0.80;0.77;;;17.90;40.20;;;;;;4991279;28;20474;-68
2023/03/13 07:42:01;;;;;;;0.70;0.63;;;17.90;40.10;;;;;;4981432;28;20974;-67
2023/03/13 07:44:26;;;;;;;1.27;0.80;;;17.80;40.80;;;;;;4994702;28;20266;-67
2023/03/13 07:46:52;;;;;;;1.00;0.90;;;17.90;40.10;;;;;;4993007;28;20243;-67
2023/03/13 07:49:17;;;;;;;1.10;0.80;;;17.90;40.10;;;;;;4990754;28;20694;-68
2023/03/13 07:51:46;;;;;;;1.00;0.90;;;17.90;40.10;;;;;;4996686;28;20249;-67
2023/03/13 07:54:12;;;;;;;0.90;0.90;;;17.90;40.10;;;;;;4994386;28;20309;-67
2023/03/13 07:56:38;;;;;;;1.67;0.73;;;17.80;40.10;;;;;;4995269;28;20795;-68
2023/03/13 07:59:03;;;;;;;0.80;0.70;;;17.90;40.10;;;;;;4988688;28;20252;-68
2023/03/13 08:01:29;;;;;;;1.63;0.83;;;17.90;40.10;;;;;;4994764;28;21038;-67
2023/03/13 08:03:55;;;;;;;0.80;0.73;;;17.80;40.10;;;;;;4989000;28;20747;-72
2023/03/13 08:06:23;;;;;;;1.77;1.10;;;17.90;40.20;;;;;;4988037;28;20230;-70
2023/03/13 08:08:49;;;;;;;0.90;0.70;;;17.90;40.20;;;;;;4987341;28;20318;-67
2023/03/13 08:11:24;;;;;;;0.70;0.60;;;17.90;40.10;;;;;;4984657;28;20472;-69
2023/03/13 08:13:49;;;;;;;0.80;0.67;;;17.80;40.10;;;;;;4992247;28;21028;-67
2023/03/13 08:16:17;;;;;;;1.10;0.80;;;17.90;40.10;;;;;;4993716;28;20462;-67
2023/03/13 08:18:46;;;;;;;1.07;0.80;;;17.90;40.20;;;;;;4993269;28;20348;-69
2023/03/13 08:21:14;;;;;;;1.33;1.10;;;17.80;40.10;;;;;;4992643;28;20480;-68
2023/03/13 08:23:40;;;;;;;1.27;0.90;;;17.90;40.20;;;;;;4994707;28;20467;-67
2023/03/13 08:26:09;;;;;;;3.37;0.80;;;17.90;40.20;;;;;;4989013;28;21037;-67
2023/03/13 08:28:36;;;;;;;0.90;0.80;;;17.90;40.20;;;;;;4993189;28;20228;-67
2023/03/13 08:31:11;;;;;;;1.00;0.90;;;17.90;41.00;;;;;;4988239;28;20435;-68
2023/03/13 08:33:37;;;;;;;1.00;0.80;;;17.80;40.10;;;;;;5002232;28;20803;-67
2023/03/13 08:36:18;;;;;;;3.63;0.80;;;17.80;40.10;;;;;;4994406;28;20519;-68
2023/03/13 08:38:45;;;;;;;0.80;0.80;;;17.80;40.10;;;;;;4983135;28;20467;-67
2023/03/13 08:41:12;;;;;;;1.00;0.70;;;17.90;40.20;;;;;;4979216;28;20434;-68
2023/03/13 08:43:38;;;;;;;3.30;1.00;;;17.80;40.20;;;;;;4982836;28;20536;-68
2023/03/13 08:46:04;;;;;;;0.90;0.70;;;17.80;40.10;;;;;;4985740;28;20968;-67
2023/03/13 08:48:29;;;;;;;0.80;0.60;;;17.90;40.20;;;;;;4979425;28;20235;-68
2023/03/13 08:51:14;;;;;;;0.90;0.90;;;17.80;40.10;;;;;;4990226;28;20251;-67
2023/03/13 08:53:42;;;;;;;1.13;0.73;;;17.80;40.10;;;;;;5023016;28;20597;-68
2023/03/13 08:56:12;;;;;;;0.80;0.70;;;17.80;40.20;;;;;;4993143;28;20520;-67
2023/03/13 08:58:38;;;;;;;1.00;0.90;;;17.80;40.20;;;;;;4997697;28;20472;-67
2023/03/13 09:01:12;;;;;;;0.80;0.73;;;17.80;40.20;;;;;;4996746;28;20451;-71
2023/03/13 09:03:39;;;;;;;0.87;0.73;;;17.80;40.20;;;;;;4998393;28;20491;-68
2023/03/13 09:06:06;;;;;;;1.07;0.70;;;17.80;40.20;;;;;;4996473;28;20438;-69
2023/03/13 09:08:32;;;;;;;0.70;0.67;;;17.80;40.20;;;;;;4991569;28;20458;-68
2023/03/13 09:11:09;;;;;;;0.90;0.80;;;17.80;40.20;;;;;;4990310;28;20558;-69
2023/03/13 09:13:40;;;;;;;1.10;0.70;;;17.80;40.20;;;;;;4992311;28;20476;-69
2023/03/13 09:16:08;;;;;;;0.90;0.80;;;17.80;40.20;;;;;;4997399;28;20468;-67
2023/03/13 09:18:35;;;;;;;1.10;0.80;;;17.80;40.20;;;;;;4994832;28;20435;-67
2023/03/13 09:21:01;;;;;;;0.80;0.80;;;17.80;40.20;;;;;;4998189;28;20451;-67
2023/03/13 09:23:27;;;;;;;1.10;0.80;;;17.80;40.20;;;;;;4995198;28;20461;-67
2023/03/13 09:25:54;;;;;;;0.70;0.60;;;17.80;40.20;;;;;;4996550;28;20440;-67
2023/03/13 09:28:20;;;;;;;0.90;0.70;;;17.80;40.20;;;;;;4981340;28;20216;-69
2023/03/13 09:30:48;;;;;;;1.07;0.97;;;17.80;40.30;;;;;;4996155;28;20440;-68
2023/03/13 09:33:13;;;;;;;0.80;0.63;;;17.80;40.20;;;;;;4984538;28;20454;-68
2023/03/13 09:35:39;;;;;;;0.80;0.70;;;17.80;40.30;;;;;;5013568;28;20490;-68
2023/03/13 09:38:05;;;;;;;0.67;0.60;;;17.80;40.30;;;;;;4994796;28;20227;-68
2023/03/13 09:40:39;;;;;;;1.23;0.80;;;17.80;40.30;;;;;;4988961;28;20226;-67
2023/03/13 09:43:32;;;;;;;0.70;0.70;;;17.80;40.30;;;;;;4986196;28;20232;-68
2023/03/13 09:46:03;;;;;;;1.87;0.90;;;17.80;40.30;;;;;;4993306;28;20451;-67
2023/03/13 09:48:32;;;;;;;0.83;0.83;;;17.80;40.30;;;;;;5002813;28;20523;-67
2023/03/13 09:51:15;;;;;;;0.80;0.70;;;17.80;40.30;;;;;;4997305;28;20469;-67
2023/03/13 09:53:52;;;;;;;0.67;0.67;;;17.80;40.30;;;;;;4989728;28;20547;-68
2023/03/13 09:56:22;;;;;;;0.80;0.80;;;17.80;40.30;;;;;;5000464;28;20476;-68
2023/03/13 09:59:01;;;;;;;1.00;0.90;;;17.80;40.30;;;;;;4992987;28;20436;-68
2023/03/13 10:01:30;;;;;;;1.57;1.47;;;17.80;40.30;;;;;;4997142;28;20469;-67
2023/03/13 10:04:17;;;;;;;1.13;0.80;;;17.80;40.30;;;;;;4985398;28;20488;-68
2023/03/13 10:06:45;;;;;;;0.63;0.63;;;17.80;40.30;;;;;;5019496;28;21036;-68
2023/03/13 10:09:21;;;;;;;0.97;0.87;;;17.80;40.30;;;;;;4982856;28;21174;-68
2023/03/13 10:11:55;;;;;;;2.27;0.73;;;17.80;40.40;;;;;;4992183;28;20465;-67
2023/03/13 10:14:28;;;;;;;0.80;0.77;;;17.80;40.40;;;;;;4982195;28;20440;-68
2023/03/13 10:17:14;;;;;;;0.80;0.70;;;17.80;40.30;;;;;;5005175;28;20486;-68
2023/03/13 10:19:42;;;;;;;0.90;0.80;;;17.80;40.30;;;;;;4984597;28;20464;-67
2023/03/13 10:22:17;;;;;;;1.70;0.80;;;17.80;40.40;;;;;;4991581;28;20542;-67
2023/03/13 10:24:53;;;;;;;0.70;0.70;;;17.80;40.40;;;;;;4988985;28;20467;-67
2023/03/13 10:27:18;;;;;;;1.43;0.90;;;17.80;40.30;;;;;;4994485;28;20423;-68
2023/03/13 10:29:44;;;;;;;0.77;0.77;;;17.80;40.40;;;;;;4997291;28;20460;-67
2023/03/13 10:32:13;;;;;;;0.80;0.80;;;17.80;40.40;;;;;;4994638;28;20223;-68
2023/03/13 10:34:56;;;;;;;1.10;0.80;;;17.80;40.30;;;;;;4988174;28;20227;-68
2023/03/13 10:37:30;;;;;;;0.80;0.80;;;17.80;40.40;;;;;;4993485;28;21690;-67
2023/03/13 10:40:21;;;;;;;0.87;0.83;;;17.80;40.30;;;;;;4988011;28;20434;-67
2023/03/13 10:42:47;;;;;;;1.07;0.97;;;17.80;40.30;;;;;;4989186;28;20523;-68
2023/03/13 10:45:16;;;;;;;0.90;0.87;;;17.80;40.50;;;;;;5012480;28;21058;-67
2023/03/13 10:47:42;;;;;;;1.20;0.80;;;17.80;40.50;;;;;;4992243;28;20259;-68
2023/03/13 10:50:18;;;;;;;1.47;1.00;;;17.80;40.40;;;;;;4996365;28;20556;-67
2023/03/13 10:52:47;;;;;;;0.80;0.80;;;17.80;40.40;;;;;;4994452;28;20314;-69
2023/03/13 10:55:17;;;;;;;1.97;0.90;;;17.80;40.40;;;;;;4997150;28;20793;-67
2023/03/13 10:57:51;;;;;;;0.90;0.70;;;17.80;40.40;;;;;;4997138;28;20473;-67
2023/03/13 11:00:38;;;;;;;0.73;0.70;;;17.80;40.50;;;;;;4990934;28;20464;-67
2023/03/13 11:03:22;;;;;;;0.70;0.60;;;17.80;40.40;;;;;;4991648;28;20482;-67
2023/03/13 11:06:00;;;;;;;0.80;0.70;;;17.80;40.40;;;;;;4996926;28;20457;-67
2023/03/13 11:08:27;;;;;;;0.80;0.70;;;17.80;40.50;;;;;;4994762;28;20457;-67
2023/03/13 11:11:02;;;;;;;0.80;0.80;;;17.80;40.50;;;;;;4994361;28;20477;-68
2023/03/13 11:13:41;;;;;;;0.80;0.80;;;17.80;40.50;;;;;;4993644;28;21051;-68
2023/03/13 11:16:22;;;;;;;0.80;0.80;;;17.80;40.50;;;;;;4981803;28;20464;-69
2023/03/13 11:19:11;;;;;;;0.90;0.70;;;17.80;40.50;;;;;;4984290;28;20452;-68
2023/03/13 11:21:43;;;;;;;0.80;0.77;;;17.80;40.50;;;;;;4991462;28;20484;-69
2023/03/13 11:24:22;;;;;;;1.03;0.93;;;17.80;40.50;;;;;;4992818;28;20515;-68
2023/03/13 11:27:05;;;;;;;0.80;0.70;;;17.80;40.50;;;;;;4987730;28;20814;-69
2023/03/13 11:30:16;;;;;;;0.73;0.70;;;17.80;40.50;;;;;;4995593;28;20449;-68
2023/03/13 11:33:00;;;;;;;0.80;0.80;;;17.80;40.50;;;;;;4994673;28;20470;-68
2023/03/13 11:35:38;;;;;;;0.90;0.80;;;17.80;40.50;;;;;;4991694;28;20461;-68
2023/03/13 11:38:11;;;;;;;1.00;0.90;;;17.80;40.50;;;;;;4996596;28;21285;-68
2023/03/13 11:40:48;;;;;;;0.90;0.77;;;17.90;40.60;;;;;;4992016;28;20436;-68
2023/03/13 11:43:29;;;;;;;0.90;0.87;;;17.80;40.50;;;;;;4991060;28;20462;-68
2023/03/13 11:46:13;;;;;;;1.10;1.00;;;17.80;40.50;;;;;;4997534;28;20470;-68
2023/03/13 11:49:16;;;;;;;0.90;0.80;;;17.80;40.50;;;;;;4995462;28;21297;-68
2023/03/13 11:52:08;;;;;;;0.80;0.80;;;17.90;40.60;;;;;;4992046;28;20527;-68
2023/03/13 11:55:02;;;;;;;1.20;1.10;;;17.90;40.60;;;;;;4986798;28;20445;-68
2023/03/13 11:57:51;;;;;;;0.90;0.80;;;17.90;40.60;;;;;;4991008;28;20448;-68
2023/03/13 12:00:33;;;;;;;1.20;1.10;;;17.90;40.60;;;;;;4979665;28;22553;-68
2023/03/13 12:03:04;;;;;;;0.80;0.70;;;17.90;40.60;;;;;;4990757;28;20511;-68
2023/03/13 12:05:45;;;;;;;1.00;0.90;;;17.90;40.60;;;;;;4992693;28;20435;-68
2023/03/13 12:08:16;;;;;;;0.90;0.73;;;17.90;40.60;;;;;;4986434;28;20513;-68
2023/03/13 12:10:57;;;;;;;1.50;0.63;;;17.90;40.60;;;;;;4992875;28;20423;-68
2023/03/13 12:13:30;;;;;;;0.70;0.70;;;17.90;40.50;;;;;;4992816;28;20553;-68
2023/03/13 12:16:01;;;;;;;0.80;0.70;;;17.90;40.60;;;;;;4981517;28;20497;-68
2023/03/13 12:18:47;;;;;;;1.07;0.90;;;17.90;40.60;;;;;;4981981;28;20530;-68
2023/03/13 12:21:21;;;;;;;0.90;0.80;;;17.90;40.60;;;;;;4995726;28;20447;-68
2023/03/13 12:24:19;;;;;;;0.80;0.70;;;17.90;40.60;;;;;;4993752;28;20450;-68
2023/03/13 12:26:58;;;;;;;0.80;0.77;;;17.90;40.60;;;;;;4994127;28;20442;-68
2023/03/13 12:29:23;;;;;;;1.27;0.63;;;17.90;40.60;;;;;;4995160;28;21285;-68
2023/03/13 12:32:10;;;;;;;0.87;0.80;;;17.90;40.60;;;;;;4992841;28;20458;-68
2023/03/13 12:34:57;;;;;;;0.70;0.60;;;17.90;40.60;;;;;;4987491;28;20687;-68
2023/03/13 12:37:53;;;;;;;0.70;0.70;;;17.90;40.60;;;;;;4991487;28;20475;-68
2023/03/13 12:40:40;;;;;;;0.67;0.60;;;17.90;40.60;;;;;;4994951;28;20460;-68
2023/03/13 12:43:15;;;;;;;0.73;0.70;;;17.90;40.70;;;;;;4987253;28;20477;-68
2023/03/13 12:46:22;;;;;;;0.80;0.70;;;17.90;40.60;;;;;;4996067;28;20469;-68
2023/03/13 12:49:04;;;;;;;0.80;0.70;;;17.90;40.70;;;;;;4988481;28;20543;-68
2023/03/13 12:51:41;;;;;;;0.80;0.70;;;17.90;41.40;;;;;;4994233;28;20447;-68
2023/03/13 12:54:30;;;;;;;0.70;0.60;;;17.90;40.70;;;;;;4984485;28;20869;-68
2023/03/13 12:57:14;;;;;;;0.70;0.70;;;17.90;40.60;;;;;;4993099;28;20792;-68
2023/03/13 12:59:48;;;;;;;0.90;0.67;;;17.90;40.60;;;;;;4984041;28;20495;-68
2023/03/13 13:02:18;;;;;;;0.70;0.70;;;17.90;41.40;;;;;;4996159;28;20454;-68
2023/03/13 13:04:46;;;;;;;1.20;0.60;;;17.90;40.70;;;;;;4984104;28;20544;-68